Terminal Aerodrome Forecast
Issued by NWS Quad Cities IA IL

Home | Current Version | Previous Version | Text Only | Print | Product List | Glossary On
Versions: 1 2 3 4 5 6 7 8 9 10 11 12 13 14 15 16 17 18 19 20 21
000
FTUS43 KDVN 290324 CCA
TAFMLI
TAF COR
KMLI 290324Z 2903/2924 18005KT P6SM VCTS SCT060CB BKN150
     FM290500 24004KT P6SM VCTS BKN060CB BKN200
      TEMPO 2905/2908 3SM TSRA BR BKN030CB
     FM290900 32006KT P6SM SCT060 SCT250
     FM291700 31011KT P6SM SCT060=

USA.gov is the U.S. government's official web portal to all federal, state and local government web resources and services.